Time;durP1;ratioP1;P1;durP2;ratioP2;P2;SDS_P1;SDS_P2;PMS_P1;PMS_P2;Temp;Humidity;BMP_temperature;BMP_pressure;BME280_temperature;BME280_humidity;BME280_pressure;Samples;Min_cycle;Max_cycle;Signal;HPM_P1;HPM_P2
2022/01/27 00:03:15;;;;;;;9.00;3.30;;;;;;;8.29;59.91;101792.53;5091134;28;20055;-75
2022/01/27 00:05:50;;;;;;;9.50;3.33;;;;;;;8.36;60.06;101797.25;5097963;28;20043;-75
2022/01/27 00:08:22;;;;;;;8.77;3.13;;;;;;;8.38;60.48;101808.75;5093073;28;20097;-75
2022/01/27 00:10:53;;;;;;;7.07;2.25;;;;;;;8.42;60.40;101806.22;5093536;28;20044;-76
2022/01/27 00:13:27;;;;;;;8.35;2.72;;;;;;;8.41;59.86;101810.56;5098371;28;20051;-75
2022/01/27 00:16:10;;;;;;;9.98;2.40;;;;;;;8.43;59.46;101810.66;5095921;28;20059;-75
2022/01/27 00:18:39;;;;;;;9.65;3.28;;;;;;;8.45;59.50;101814.25;5122189;27;20517;-76
2022/01/27 00:21:08;;;;;;;7.60;2.88;;;;;;;8.46;59.57;101814.31;5122886;27;20483;-75
2022/01/27 00:23:52;;;;;;;8.52;3.17;;;;;;;8.42;60.64;101819.38;5132122;27;20047;-76
2022/01/27 00:26:20;;;;;;;6.78;3.00;;;;;;;8.36;61.20;101828.81;5103482;28;20043;-76
2022/01/27 00:28:49;;;;;;;8.38;3.33;;;;;;;8.35;61.20;101832.28;5108749;27;20035;-76
2022/01/27 00:31:18;;;;;;;8.90;4.10;;;;;;;8.37;61.12;101819.19;5104057;27;20089;-76
2022/01/27 00:33:47;;;;;;;8.32;4.50;;;;;;;8.36;61.05;101807.78;5122330;27;20043;-76
2022/01/27 00:36:16;;;;;;;8.40;2.83;;;;;;;8.33;60.59;101818.19;5104056;28;20039;-77
2022/01/27 00:38:44;;;;;;;11.45;4.10;;;;;;;8.32;60.21;101807.59;5090060;28;20036;-75
2022/01/27 00:41:13;;;;;;;4.00;2.45;;;;;;;8.36;59.74;101793.72;5088126;28;20092;-75
2022/01/27 00:43:43;;;;;;;6.18;3.00;;;;;;;8.37;59.36;101799.03;5104677;28;20040;-75
2022/01/27 00:46:15;;;;;;;4.95;2.28;;;;;;;8.40;59.71;101785.13;5113305;27;20391;-76
2022/01/27 00:48:43;;;;;;;6.43;2.30;;;;;;;8.42;59.97;101808.84;5114931;27;20041;-75
2022/01/27 00:51:12;;;;;;;6.03;2.75;;;;;;;8.45;59.91;101803.72;5097512;28;20095;-75
2022/01/27 00:53:48;;;;;;;8.02;2.70;;;;;;;8.43;59.33;101801.03;5108492;27;20065;-76
2022/01/27 00:56:23;;;;;;;6.63;2.20;;;;;;;8.44;58.94;101802.81;5096394;28;20040;-75
2022/01/27 00:59:03;;;;;;;7.65;3.40;;;;;;;8.42;58.84;101796.59;5096547;27;20039;-76
2022/01/27 01:01:35;;;;;;;5.45;1.95;;;;;;;8.45;58.65;101790.56;5102289;27;20048;-75
2022/01/27 01:04:06;;;;;;;7.10;2.40;;;;;;;8.46;58.38;101788.00;5096398;27;20039;-75
2022/01/27 01:06:42;;;;;;;7.85;2.00;;;;;;;8.49;58.41;101780.22;5093168;28;20494;-75
2022/01/27 01:14:57;;;;;;;5.30;2.13;;;;;;;8.49;58.04;101774.06;5083080;28;20044;-75
2022/01/27 01:17:33;;;;;;;5.78;1.92;;;;;;;8.46;56.56;101779.22;5085682;28;20051;-75
2022/01/27 01:20:22;;;;;;;5.50;1.67;;;;;;;8.48;55.90;101783.69;5086933;28;20093;-75
2022/01/27 01:33:58;;;;;;;9.45;3.17;;;;;;;8.54;54.82;101786.56;5077049;28;20049;-75
2022/01/27 01:36:36;;;;;;;5.80;2.15;;;;;;;8.57;54.89;101791.06;5064795;28;20122;-75
2022/01/27 01:39:05;;;;;;;6.05;1.98;;;;;;;8.59;54.66;101785.03;5065074;28;20048;-74
2022/01/27 01:41:33;;;;;;;5.55;2.03;;;;;;;8.59;53.62;101782.41;5065334;28;20040;-75
2022/01/27 01:44:03;;;;;;;3.90;1.60;;;;;;;8.63;53.15;101786.94;5065587;28;20047;-74
2022/01/27 01:46:31;;;;;;;5.95;1.70;;;;;;;8.62;52.97;101790.41;5065272;28;20053;-75
2022/01/27 01:48:59;;;;;;;3.67;1.27;;;;;;;8.63;52.91;101779.03;5077529;28;20058;-75
2022/01/27 01:51:29;;;;;;;7.45;2.17;;;;;;;8.61;51.70;101785.97;5084729;28;20036;-74
2022/01/27 01:53:57;;;;;;;4.63;1.90;;;;;;;8.64;52.47;101779.94;5086262;28;20087;-75
2022/01/27 01:56:25;;;;;;;5.85;2.38;;;;;;;8.66;52.31;101780.91;5086787;28;20068;-74
2022/01/27 01:58:53;;;;;;;6.80;2.15;;;;;;;8.68;52.88;101779.22;5071425;28;20076;-75
2022/01/27 02:01:22;;;;;;;7.00;2.22;;;;;;;8.70;52.94;101788.97;5065104;28;20078;-75
2022/01/27 02:03:51;;;;;;;9.20;3.10;;;;;;;8.68;52.29;101788.00;5065086;28;20047;-75
2022/01/27 02:06:25;;;;;;;6.65;2.67;;;;;;;8.69;52.46;101789.81;5066372;28;20078;-75
2022/01/27 02:09:10;;;;;;;7.82;1.88;;;;;;;8.69;52.56;101774.03;5081408;28;20468;-75
2022/01/27 02:19:57;;;;;;;5.03;1.80;;;;;;;8.64;49.31;101787.84;5065049;28;20045;-74
2022/01/27 02:22:26;;;;;;;3.72;2.33;;;;;;;8.68;49.79;101787.09;5040890;28;20049;-75
2022/01/27 02:24:54;;;;;;;6.63;2.50;;;;;;;8.65;49.91;101787.91;5051833;28;20127;-75
2022/01/27 02:27:22;;;;;;;8.45;1.80;;;;;;;8.73;50.85;101786.44;5052009;28;20045;-75
2022/01/27 02:29:50;;;;;;;5.88;2.42;;;;;;;8.72;52.04;101791.69;5051403;28;20037;-75
2022/01/27 02:32:22;;;;;;;5.50;1.88;;;;;;;8.72;52.53;101784.69;5052749;28;20043;-75
2022/01/27 02:34:50;;;;;;;4.63;2.40;;;;;;;8.73;51.88;101773.28;5052034;28;20511;-74
2022/01/27 02:37:19;;;;;;;7.50;2.17;;;;;;;8.76;51.47;101778.69;5050758;28;20154;-74
2022/01/27 02:39:47;;;;;;;6.13;2.28;;;;;;;8.75;50.43;101787.41;5059303;28;20088;-75
2022/01/27 02:42:22;;;;;;;5.82;1.70;;;;;;;8.77;50.07;101776.94;5051242;28;20037;-74
2022/01/27 02:45:02;;;;;;;4.47;1.77;;;;;;;8.78;50.05;101768.22;5050961;28;20057;-75
2022/01/27 02:47:30;;;;;;;8.32;2.13;;;;;;;8.78;50.57;101766.50;5052280;28;20391;-74
2022/01/27 02:49:57;;;;;;;5.18;2.00;;;;;;;8.77;50.70;101771.69;5050956;28;20071;-74
2022/01/27 02:52:27;;;;;;;2.65;1.70;;;;;;;8.77;51.39;101771.69;5050898;28;20386;-74
2022/01/27 02:54:54;;;;;;;6.55;2.20;;;;;;;8.78;51.75;101771.75;5049672;28;20049;-74
2022/01/27 02:57:22;;;;;;;4.78;1.70;;;;;;;8.83;51.86;101779.81;5034136;28;20061;-73
2022/01/27 02:59:50;;;;;;;9.73;2.15;;;;;;;8.85;51.82;101769.34;5050830;28;20037;-74
2022/01/27 03:02:18;;;;;;;8.48;2.10;;;;;;;8.85;52.39;101772.91;5052173;28;20064;-74
2022/01/27 03:04:45;;;;;;;10.20;2.75;;;;;;;8.86;52.44;101779.94;5051951;28;20037;-75
2022/01/27 03:07:14;;;;;;;5.47;2.13;;;;;;;8.86;53.03;101776.44;5050806;28;20050;-74
2022/01/27 03:09:43;;;;;;;7.00;2.20;;;;;;;8.88;53.14;101787.88;5043464;28;20501;-74
2022/01/27 03:12:13;;;;;;;8.10;2.40;;;;;;;8.90;53.80;101767.78;5058452;28;20037;-74
2022/01/27 03:14:42;;;;;;;6.72;2.88;;;;;;;8.94;53.99;101777.59;5033693;28;20041;-74
2022/01/27 03:17:10;;;;;;;7.03;2.83;;;;;;;8.94;54.57;101769.69;5049898;28;20037;-74
2022/01/27 03:19:38;;;;;;;6.18;2.70;;;;;;;8.89;54.91;101777.44;5050596;28;20110;-74
2022/01/27 03:22:07;;;;;;;7.43;2.65;;;;;;;8.94;54.72;101796.03;5051403;28;20044;-74
2022/01/27 03:24:36;;;;;;;6.78;2.72;;;;;;;8.92;55.02;101787.19;5050880;28;20053;-74
2022/01/27 03:27:13;;;;;;;7.63;3.15;;;;;;;8.95;54.96;101789.94;5033693;28;20041;-74
2022/01/27 03:29:41;;;;;;;5.35;2.65;;;;;;;8.96;55.29;101786.47;5051381;28;20045;-74
2022/01/27 03:32:09;;;;;;;7.40;2.70;;;;;;;8.93;54.59;101800.41;5050386;28;20063;-74
2022/01/27 03:34:36;;;;;;;6.70;2.40;;;;;;;8.94;54.45;101785.50;5050044;28;20045;-74
2022/01/27 03:37:04;;;;;;;5.07;2.40;;;;;;;8.93;54.20;101783.69;5065228;28;20079;-74
2022/01/27 03:39:36;;;;;;;6.03;1.65;;;;;;;8.87;54.02;101783.47;5051227;28;20040;-74
2022/01/27 03:42:06;;;;;;;9.80;2.85;;;;;;;8.86;53.78;101794.84;5051592;28;20104;-74
2022/01/27 03:44:35;;;;;;;8.80;3.20;;;;;;;8.89;53.95;101803.75;5052588;28;20041;-74
2022/01/27 03:47:04;;;;;;;4.95;1.90;;;;;;;8.93;53.92;101797.75;5033154;28;20124;-74
2022/01/27 03:49:31;;;;;;;7.47;2.90;;;;;;;8.94;54.22;101817.09;5033189;28;20037;-73
2022/01/27 03:52:01;;;;;;;8.70;2.50;;;;;;;8.93;53.83;101807.38;5051078;28;20451;-74
2022/01/27 03:54:30;;;;;;;4.97;2.30;;;;;;;8.95;53.69;101800.47;5051239;28;20103;-74
2022/01/27 03:56:58;;;;;;;5.75;2.45;;;;;;;8.94;53.11;101806.56;5050302;28;20252;-74
2022/01/27 03:59:28;;;;;;;7.05;3.10;;;;;;;8.97;53.55;101804.97;5050117;28;20037;-74
2022/01/27 04:01:55;;;;;;;6.95;2.72;;;;;;;8.99;53.49;101810.28;5049821;28;20045;-74
2022/01/27 04:04:24;;;;;;;5.13;2.20;;;;;;;8.96;53.74;101808.44;5049038;28;20400;-74
2022/01/27 04:06:53;;;;;;;7.75;2.88;;;;;;;8.97;54.35;101804.06;5049752;28;20574;-73
2022/01/27 04:09:20;;;;;;;5.38;2.17;;;;;;;8.97;54.65;101817.22;5049423;28;20048;-74
2022/01/27 04:11:49;;;;;;;8.20;2.83;;;;;;;8.98;55.14;101813.75;5048381;28;20037;-73
2022/01/27 04:14:17;;;;;;;7.40;3.03;;;;;;;8.96;55.57;101818.06;5049156;28;20045;-74
2022/01/27 04:16:46;;;;;;;9.82;3.85;;;;;;;8.97;56.48;101817.22;5049467;28;20492;-73
2022/01/27 04:19:14;;;;;;;10.88;4.18;;;;;;;8.96;57.02;101818.97;5048824;28;20095;-74
2022/01/27 04:21:41;;;;;;;11.50;2.45;;;;;;;8.99;57.39;101831.38;5065064;28;20392;-73
2022/01/27 04:24:11;;;;;;;6.85;2.45;;;;;;;8.93;57.80;101847.78;5070189;28;20068;-74
2022/01/27 04:26:43;;;;;;;7.43;2.50;;;;;;;8.89;58.11;101845.88;5069880;28;20052;-74
2022/01/27 04:29:11;;;;;;;5.97;2.92;;;;;;;8.88;58.49;101848.44;5070156;28;20044;-75
2022/01/27 04:31:42;;;;;;;8.02;2.80;;;;;;;8.88;58.61;101848.44;5070120;28;20040;-73
2022/01/27 04:34:12;;;;;;;9.43;2.97;;;;;;;8.88;58.64;101848.44;5069622;28;20555;-73
2022/01/27 04:36:42;;;;;;;8.73;2.88;;;;;;;8.83;58.41;101847.38;5069236;28;20055;-73
2022/01/27 04:39:16;;;;;;;9.07;2.95;;;;;;;8.72;58.50;101858.38;5068521;28;20079;-73
2022/01/27 04:41:49;;;;;;;7.18;2.38;;;;;;;8.71;58.63;101856.59;5068447;28;20046;-73
2022/01/27 04:44:24;;;;;;;10.32;3.08;;;;;;;8.73;58.22;101862.78;5056918;28;20060;-73
2022/01/27 04:46:58;;;;;;;8.73;3.10;;;;;;;8.78;57.87;101868.25;5070589;28;20040;-73
2022/01/27 04:49:27;;;;;;;4.87;2.33;;;;;;;8.77;57.85;101864.72;5069774;28;20040;-74
2022/01/27 04:51:54;;;;;;;10.00;3.50;;;;;;;8.76;57.83;101860.28;5068661;28;20692;-73
2022/01/27 04:54:27;;;;;;;7.97;2.40;;;;;;;8.82;57.63;101874.53;5069235;28;20075;-74
2022/01/27 04:56:59;;;;;;;6.13;2.30;;;;;;;8.86;57.25;101873.84;5075065;28;20407;-74
2022/01/27 04:59:29;;;;;;;5.45;2.33;;;;;;;8.84;56.33;101881.69;5066160;28;20060;-74
2022/01/27 05:01:58;;;;;;;7.38;3.10;;;;;;;8.87;56.00;101871.25;5065651;28;20045;-73
2022/01/27 05:04:32;;;;;;;6.10;2.80;;;;;;;8.89;56.26;101881.84;5069547;28;20041;-74
2022/01/27 05:06:59;;;;;;;10.77;2.38;;;;;;;8.85;56.43;101879.94;5070496;28;20040;-73
2022/01/27 05:09:27;;;;;;;7.45;2.67;;;;;;;8.87;56.61;101880.88;5067953;28;20114;-73
2022/01/27 05:11:58;;;;;;;6.78;2.53;;;;;;;8.87;56.70;101876.50;5069639;28;20045;-73
2022/01/27 05:14:26;;;;;;;7.03;2.88;;;;;;;8.87;56.90;101878.25;5069601;28;20041;-73
2022/01/27 05:16:55;;;;;;;7.72;3.47;;;;;;;8.90;56.95;101897.72;5048933;28;20049;-73
2022/01/27 05:19:23;;;;;;;15.00;6.57;;;;;;;8.89;57.02;101901.19;5071430;28;20037;-73
2022/01/27 05:21:52;;;;;;;11.73;4.65;;;;;;;8.88;57.41;101883.59;5069706;28;20045;-73
2022/01/27 05:24:21;;;;;;;6.40;2.80;;;;;;;8.87;57.53;101887.03;5068750;28;20049;-74
2022/01/27 05:26:49;;;;;;;6.53;2.72;;;;;;;8.88;57.76;101896.75;5068431;28;20309;-74
2022/01/27 05:29:18;;;;;;;15.30;6.10;;;;;;;8.89;57.67;101892.38;5069244;28;20462;-73
2022/01/27 05:31:46;;;;;;;8.95;3.75;;;;;;;8.92;57.82;101900.41;5069712;28;20040;-74
2022/01/27 05:34:13;;;;;;;8.30;4.18;;;;;;;8.95;57.53;101890.00;5070038;28;20040;-73
2022/01/27 05:36:41;;;;;;;10.00;4.15;;;;;;;8.98;57.65;101898.03;5068334;28;20528;-73
2022/01/27 05:39:10;;;;;;;11.05;4.43;;;;;;;9.02;57.77;101897.31;5068386;28;20041;-73
2022/01/27 05:41:38;;;;;;;9.13;4.47;;;;;;;9.00;57.51;101886.69;5067274;28;20040;-73
2022/01/27 05:44:06;;;;;;;11.82;5.20;;;;;;;8.99;57.21;101900.69;5067492;28;20052;-73
2022/01/27 05:46:33;;;;;;;9.88;4.25;;;;;;;8.99;57.46;101899.84;5067399;28;20037;-73
2022/01/27 05:49:01;;;;;;;9.88;4.30;;;;;;;8.99;57.54;101907.72;5067273;28;20446;-74
2022/01/27 05:51:29;;;;;;;13.73;5.32;;;;;;;9.01;57.61;101903.41;5067148;28;20051;-73
2022/01/27 05:53:56;;;;;;;8.57;4.18;;;;;;;9.04;57.38;101898.28;5068497;28;20064;-74
2022/01/27 05:56:25;;;;;;;60.78;23.67;;;;;;;9.07;57.60;101906.28;5064542;28;20097;-73
2022/01/27 05:58:53;;;;;;;31.35;11.57;;;;;;;9.10;58.00;101909.06;5071074;28;20072;-73
2022/01/27 06:01:21;;;;;;;9.38;4.10;;;;;;;9.11;58.21;101914.38;5071508;28;20033;-73
2022/01/27 06:03:49;;;;;;;11.73;3.13;;;;;;;9.11;57.99;101910.84;5069134;28;20044;-74
2022/01/27 06:06:16;;;;;;;10.10;3.95;;;;;;;9.14;57.75;101921.50;5054766;28;20091;-74
2022/01/27 06:08:45;;;;;;;8.45;3.33;;;;;;;9.13;57.31;101909.16;5088876;28;20040;-74
2022/01/27 06:11:13;;;;;;;11.35;4.82;;;;;;;9.15;57.43;101908.38;5069086;28;20077;-74
2022/01/27 06:13:43;;;;;;;6.03;3.22;;;;;;;9.21;57.33;101910.38;5051353;28;20124;-73
2022/01/27 06:16:12;;;;;;;9.73;6.25;;;;;;;9.22;57.27;101930.59;5052619;28;20041;-73
2022/01/27 06:18:41;;;;;;;10.65;6.38;;;;;;;9.25;56.71;101935.13;5052731;28;20120;-73
2022/01/27 06:21:10;;;;;;;11.90;6.05;;;;;;;9.25;56.48;101933.38;5068385;28;20044;-74
2022/01/27 06:23:38;;;;;;;9.55;4.13;;;;;;;9.26;56.36;101942.16;5069294;28;20043;-73
2022/01/27 06:26:05;;;;;;;8.57;3.30;;;;;;;9.29;56.46;101943.19;5070568;28;20136;-74
2022/01/27 06:28:33;;;;;;;6.10;3.53;;;;;;;9.30;56.66;101939.72;5068465;28;20090;-73
2022/01/27 06:31:02;;;;;;;10.43;3.83;;;;;;;9.31;56.54;101935.34;5053737;28;20489;-73
2022/01/27 06:33:30;;;;;;;6.05;2.67;;;;;;;9.31;56.52;101933.63;5053614;28;20041;-73
2022/01/27 06:35:58;;;;;;;8.40;4.05;;;;;;;9.34;56.05;101941.63;5064068;28;20484;-73
2022/01/27 06:38:26;;;;;;;55.92;21.42;;;;;;;9.34;55.39;101946.91;5051136;28;20338;-74
2022/01/27 06:40:53;;;;;;;12.35;5.57;;;;;;;9.38;55.36;101951.47;5063798;28;20033;-74
2022/01/27 06:43:21;;;;;;;9.30;5.43;;;;;;;9.41;55.48;101951.56;5052187;28;20037;-74
2022/01/27 06:45:48;;;;;;;7.57;4.00;;;;;;;9.42;55.95;101950.75;5071430;28;20029;-74
2022/01/27 06:48:17;;;;;;;8.48;5.28;;;;;;;9.44;55.44;101961.34;5071413;28;20044;-74
2022/01/27 06:50:50;;;;;;;10.98;5.93;;;;;;;9.46;55.64;101954.38;5069753;28;20048;-74
2022/01/27 06:53:18;;;;;;;11.07;4.65;;;;;;;9.49;55.10;101954.50;5056576;28;20029;-74
2022/01/27 06:55:46;;;;;;;8.43;3.60;;;;;;;9.54;54.85;101959.13;5061973;28;20124;-75
2022/01/27 06:58:14;;;;;;;8.70;6.05;;;;;;;9.57;54.44;101961.91;5055489;28;20470;-73
2022/01/27 07:00:42;;;;;;;7.55;3.72;;;;;;;9.58;54.58;101962.78;5071605;28;20068;-73
2022/01/27 07:03:10;;;;;;;8.88;4.57;;;;;;;9.57;54.31;101961.91;5063198;28;20041;-73
2022/01/27 07:05:40;;;;;;;6.63;3.75;;;;;;;9.57;53.99;101976.81;5052275;28;20041;-73
2022/01/27 07:08:08;;;;;;;8.55;3.30;;;;;;;9.57;53.77;101982.06;5078555;28;20036;-73
2022/01/27 07:10:36;;;;;;;9.57;5.88;;;;;;;9.57;53.24;101982.06;5062054;28;20073;-73
2022/01/27 07:13:04;;;;;;;8.32;3.53;;;;;;;9.54;53.50;101974.94;5049694;28;20052;-73
2022/01/27 07:15:32;;;;;;;5.47;2.80;;;;;;;9.53;53.46;101993.31;5048849;28;20552;-74
2022/01/27 07:18:00;;;;;;;7.88;5.18;;;;;;;9.53;53.80;101991.59;5033962;28;20449;-73
2022/01/27 07:20:27;;;;;;;7.68;3.53;;;;;;;9.59;53.84;102006.75;5033530;28;20551;-73
2022/01/27 07:22:57;;;;;;;9.63;3.22;;;;;;;9.67;53.69;102009.69;5064078;28;20466;-74
2022/01/27 07:25:24;;;;;;;10.40;4.05;;;;;;;9.69;53.42;101993.09;5051509;28;20051;-73
2022/01/27 07:27:52;;;;;;;7.30;2.50;;;;;;;9.68;52.48;102012.38;5062947;28;20102;-73
2022/01/27 07:30:20;;;;;;;10.50;4.10;;;;;;;9.72;52.77;102013.38;5065865;28;20498;-73
2022/01/27 07:32:47;;;;;;;6.63;3.50;;;;;;;9.73;52.39;102009.91;5064441;28;20095;-73
2022/01/27 07:35:15;;;;;;;5.30;2.78;;;;;;;9.78;51.15;102018.94;5050820;28;20041;-74
2022/01/27 07:37:45;;;;;;;8.65;4.93;;;;;;;9.86;51.06;102018.38;5063934;28;20047;-73
2022/01/27 07:40:14;;;;;;;8.75;3.85;;;;;;;9.98;50.97;102010.00;5045209;28;20428;-73
2022/01/27 07:42:42;;;;;;;5.38;2.92;;;;;;;10.02;50.54;102018.97;5047793;28;20443;-73
2022/01/27 07:45:10;;;;;;;12.52;6.15;;;;;;;10.06;50.32;102013.84;5047357;28;20135;-73
2022/01/27 07:47:38;;;;;;;9.57;4.57;;;;;;;10.07;50.53;102018.28;5046079;28;20048;-73
2022/01/27 07:50:08;;;;;;;5.05;2.47;;;;;;;10.03;50.70;102015.50;5042033;28;20059;-74
2022/01/27 07:52:35;;;;;;;10.68;6.35;;;;;;;10.03;51.43;102028.69;5043444;28;20503;-73
2022/01/27 07:55:03;;;;;;;8.27;3.53;;;;;;;10.03;52.11;102015.50;5049397;28;20078;-74
2022/01/27 07:57:32;;;;;;;8.23;4.60;;;;;;;10.02;52.52;102013.69;5045399;28;20110;-73
2022/01/27 07:59:59;;;;;;;6.68;3.67;;;;;;;10.04;52.82;102015.56;5039938;28;20053;-73
2022/01/27 08:02:27;;;;;;;9.38;3.88;;;;;;;10.11;51.41;102024.59;5055161;28;20044;-74
2022/01/27 08:04:54;;;;;;;7.88;3.63;;;;;;;10.16;50.28;102037.13;5042326;28;20412;-73
2022/01/27 08:07:22;;;;;;;5.00;2.75;;;;;;;10.22;49.40;102033.84;5049668;28;20044;-73
2022/01/27 08:09:50;;;;;;;8.95;3.90;;;;;;;10.19;48.41;102031.97;5041466;28;20049;-73
2022/01/27 08:12:19;;;;;;;8.85;4.38;;;;;;;10.23;48.32;102046.19;5038027;28;20497;-74
2022/01/27 08:14:48;;;;;;;8.73;4.20;;;;;;;10.29;48.38;102055.25;5046568;28;20037;-73
2022/01/27 08:17:17;;;;;;;8.80;4.65;;;;;;;10.38;48.72;102054.66;5029568;28;20068;-74
2022/01/27 08:19:44;;;;;;;7.75;3.95;;;;;;;10.45;48.84;102043.50;5059607;28;20046;-73
2022/01/27 08:22:12;;;;;;;7.32;3.50;;;;;;;10.50;48.39;102049.84;5046452;28;20037;-73
2022/01/27 08:24:41;;;;;;;7.63;3.70;;;;;;;10.53;48.64;102057.88;5048930;28;20132;-73
2022/01/27 08:27:12;;;;;;;8.93;3.90;;;;;;;10.50;49.15;102059.53;5032199;28;20041;-73
2022/01/27 08:29:45;;;;;;;9.82;3.70;;;;;;;10.50;49.26;102051.59;5053740;28;20044;-73
2022/01/27 08:32:18;;;;;;;6.95;3.50;;;;;;;10.51;48.69;102059.56;5046033;28;20423;-73
2022/01/27 08:34:46;;;;;;;6.63;3.92;;;;;;;10.49;48.66;102060.38;5048146;28;20053;-74
2022/01/27 08:37:18;;;;;;;5.30;2.53;;;;;;;10.45;48.85;102061.06;5062248;28;20083;-73
2022/01/27 08:39:47;;;;;;;8.65;4.28;;;;;;;10.40;48.77;102066.19;5053330;28;20128;-74
2022/01/27 08:42:15;;;;;;;5.70;3.70;;;;;;;10.41;47.94;102061.81;5042079;28;20556;-73
2022/01/27 08:44:43;;;;;;;7.20;3.13;;;;;;;10.41;47.19;102056.53;5040577;28;20123;-73
2022/01/27 08:47:12;;;;;;;6.13;3.85;;;;;;;10.53;47.54;102064.91;5048196;28;20484;-73
2022/01/27 08:49:43;;;;;;;5.20;3.30;;;;;;;10.66;47.77;102061.88;5037644;28;20508;-73
2022/01/27 08:52:11;;;;;;;5.25;3.80;;;;;;;10.57;46.54;102062.41;5042039;28;20107;-73
2022/01/27 08:54:38;;;;;;;6.30;3.15;;;;;;;10.56;47.13;102063.28;5049527;28;20044;-73
2022/01/27 08:57:07;;;;;;;7.30;2.00;;;;;;;10.67;46.78;102067.22;5043782;28;20045;-73
2022/01/27 08:59:35;;;;;;;5.25;1.65;;;;;;;10.76;47.08;102053.44;5031999;28;20390;-73
2022/01/27 09:02:02;;;;;;;4.18;2.80;;;;;;;10.85;46.54;102063.41;5042666;28;20041;-73
2022/01/27 09:04:30;;;;;;;4.80;2.50;;;;;;;10.90;46.91;102059.19;5044843;28;20120;-73
2022/01/27 09:06:59;;;;;;;4.00;2.28;;;;;;;10.81;46.32;102059.78;5041174;28;20092;-73
2022/01/27 09:09:28;;;;;;;6.50;3.08;;;;;;;10.75;46.72;102049.91;5036283;28;20045;-73
2022/01/27 09:11:58;;;;;;;5.30;2.63;;;;;;;10.76;47.30;102053.44;5018314;28;20056;-73
2022/01/27 09:14:29;;;;;;;9.02;2.10;;;;;;;11.07;47.62;102058.94;5056738;28;20049;-73
2022/01/27 09:16:57;;;;;;;3.90;1.73;;;;;;;11.04;46.16;102050.00;5048222;28;20161;-73
2022/01/27 09:19:26;;;;;;;7.03;3.13;;;;;;;10.93;47.04;102049.63;5033318;28;20457;-73
2022/01/27 09:21:54;;;;;;;5.78;2.42;;;;;;;10.95;46.97;102054.97;5049447;28;20397;-73
2022/01/27 09:24:35;;;;;;;6.70;2.50;;;;;;;11.36;46.62;102051.97;5047042;28;20044;-73
2022/01/27 09:27:03;;;;;;;6.88;1.80;;;;;;;11.38;47.56;102046.75;5062762;28;20132;-73
2022/01/27 09:29:31;;;;;;;4.57;2.42;;;;;;;11.41;47.47;102060.09;5047966;28;20163;-73
2022/01/27 09:32:02;;;;;;;2.92;2.03;;;;;;;11.43;47.43;102048.69;5038160;28;20465;-73
2022/01/27 09:34:29;;;;;;;2.83;1.73;;;;;;;11.34;47.78;102048.41;5049250;28;20037;-73
2022/01/27 09:36:57;;;;;;;5.22;2.08;;;;;;;11.27;47.97;102038.47;5041328;28;20037;-73
2022/01/27 09:39:27;;;;;;;5.75;2.40;;;;;;;11.37;48.30;102044.94;5048014;28;20410;-73
2022/01/27 09:41:56;;;;;;;9.32;4.47;;;;;;;11.34;48.36;102047.50;5016110;28;20066;-73
2022/01/27 09:44:28;;;;;;;4.65;2.60;;;;;;;11.29;48.12;102038.53;5042203;28;20045;-73
2022/01/27 09:46:58;;;;;;;4.28;2.67;;;;;;;11.23;47.38;102036.56;5052869;28;20052;-73
2022/01/27 09:49:33;;;;;;;7.22;3.05;;;;;;;11.11;48.06;102044.06;5051393;28;20052;-73
2022/01/27 09:52:02;;;;;;;5.53;2.42;;;;;;;11.22;48.32;102033.88;5053097;28;20563;-73
2022/01/27 09:54:31;;;;;;;5.82;2.13;;;;;;;11.40;47.81;102031.84;5047943;28;20037;-73
2022/01/27 09:56:59;;;;;;;2.55;1.58;;;;;;;11.67;47.79;102038.03;5053088;28;20408;-73
2022/01/27 09:59:26;;;;;;;4.75;2.88;;;;;;;12.08;47.60;102030.50;5051443;28;20107;-73
2022/01/27 10:01:57;;;;;;;20.95;9.35;;;;;;;12.27;45.00;102027.53;5056324;28;20047;-74
2022/01/27 10:04:43;;;;;;;41.45;18.52;;;;;;;11.90;44.81;102020.22;5051044;28;20037;-73
2022/01/27 10:07:11;;;;;;;6.85;4.60;;;;;;;11.75;45.59;102028.59;5036066;28;20082;-73
2022/01/27 10:09:40;;;;;;;10.88;2.88;;;;;;;11.82;46.26;102008.50;5048626;28;20048;-73
2022/01/27 10:12:08;;;;;;;5.10;2.17;;;;;;;11.94;46.62;102022.13;5032039;28;20041;-73
2022/01/27 10:14:38;;;;;;;6.70;2.03;;;;;;;12.23;45.61;102020.31;5031291;28;20037;-74
2022/01/27 10:17:11;;;;;;;6.35;2.35;;;;;;;12.22;45.92;102015.88;5032113;28;20120;-73
2022/01/27 10:19:40;;;;;;;5.78;2.40;;;;;;;12.13;45.94;102013.88;5058579;28;20103;-73
2022/01/27 10:22:13;;;;;;;4.50;3.03;;;;;;;12.03;46.15;102017.09;5048469;28;20048;-73
2022/01/27 10:24:42;;;;;;;5.70;3.33;;;;;;;11.92;46.17;102007.94;5038608;28;20041;-73
2022/01/27 10:27:24;;;;;;;9.13;2.58;;;;;;;11.84;45.12;102005.06;5043082;28;20586;-73
2022/01/27 10:32:41;;;;;;;6.32;3.05;;;;;;;11.82;44.92;101996.19;5075624;28;20064;-74
2022/01/27 10:35:10;;;;;;;4.18;2.83;;;;;;;11.84;45.45;102014.75;5039112;28;20500;-73
2022/01/27 10:37:55;;;;;;;3.17;2.22;;;;;;;11.81;45.38;102006.75;5043542;28;20120;-73
2022/01/27 10:40:27;;;;;;;5.80;2.30;;;;;;;11.80;45.53;101999.66;5033506;28;20068;-73
2022/01/27 10:43:17;;;;;;;4.75;2.55;;;;;;;11.68;44.55;101999.25;5041606;28;20043;-73
2022/01/27 10:46:06;;;;;;;5.18;2.33;;;;;;;11.57;44.81;101999.78;5047906;28;20060;-73
2022/01/27 10:48:36;;;;;;;8.88;5.18;;;;;;;11.55;45.26;101997.97;5051135;28;20048;-73
2022/01/27 10:51:09;;;;;;;7.75;3.85;;;;;;;11.57;45.62;101993.59;5079791;28;20093;-73
2022/01/27 10:53:54;;;;;;;4.82;2.85;;;;;;;11.54;45.83;101998.81;5072037;28;20110;-73
2022/01/27 10:56:26;;;;;;;6.35;2.95;;;;;;;11.54;46.11;101998.81;5053175;28;20045;-73
2022/01/27 10:58:56;;;;;;;7.53;2.58;;;;;;;11.54;46.61;101993.53;5055110;28;20480;-74
2022/01/27 11:01:30;;;;;;;3.03;1.45;;;;;;;11.56;46.60;101994.44;5069216;28;20121;-73
2022/01/27 11:04:00;;;;;;;5.03;1.88;;;;;;;11.57;46.75;101985.66;5063619;28;20044;-73
2022/01/27 11:06:31;;;;;;;6.53;2.97;;;;;;;11.59;46.47;101986.63;5056135;28;20507;-73
2022/01/27 11:09:01;;;;;;;6.65;2.42;;;;;;;11.66;46.48;101985.06;5067150;28;20423;-73
2022/01/27 11:11:30;;;;;;;5.50;3.10;;;;;;;11.73;46.43;101981.75;5063821;28;20062;-73
2022/01/27 11:14:00;;;;;;;4.88;2.30;;;;;;;11.69;46.19;101983.38;5054907;28;20041;-73
2022/01/27 11:16:34;;;;;;;6.70;2.67;;;;;;;11.64;46.38;101986.75;5053212;28;20122;-74
2022/01/27 11:19:17;;;;;;;2.92;1.70;;;;;;;11.61;46.89;101986.69;5048025;28;20041;-73
2022/01/27 11:21:49;;;;;;;3.38;2.17;;;;;;;11.49;46.27;101981.88;5045635;28;20053;-73
2022/01/27 11:24:26;;;;;;;5.60;2.05;;;;;;;11.39;46.29;101974.50;5042522;28;20041;-74
2022/01/27 11:26:58;;;;;;;6.32;2.42;;;;;;;11.31;46.48;101982.19;5062326;28;20076;-73
2022/01/27 11:29:28;;;;;;;6.93;2.60;;;;;;;11.27;46.68;101976.78;5031491;28;20053;-73
2022/01/27 11:32:13;;;;;;;5.95;2.33;;;;;;;11.32;47.07;101985.75;5050224;28;20045;-73
2022/01/27 11:34:49;;;;;;;8.65;4.45;;;;;;;11.32;47.02;101973.44;5034105;28;20049;-73
2022/01/27 11:37:18;;;;;;;7.13;3.03;;;;;;;11.31;47.25;101976.00;5059809;28;20075;-74
2022/01/27 11:39:52;;;;;;;6.78;2.83;;;;;;;11.25;47.14;101987.28;5046761;28;20397;-74
2022/01/27 11:42:43;;;;;;;9.40;3.65;;;;;;;11.21;47.19;101981.88;5064030;28;20037;-73
2022/01/27 11:45:27;;;;;;;8.15;2.60;;;;;;;11.11;47.05;101976.25;5051091;28;20049;-73
2022/01/27 11:47:56;;;;;;;;;;;;;;;10.99;47.27;101977.59;5051212;28;20132;-73
2022/01/27 11:50:32;;;;;;;5.40;2.63;;;;;;;10.95;47.44;101973.97;5027566;28;19925;-73
2022/01/27 11:53:01;;;;;;;5.47;2.20;;;;;;;10.94;47.30;101979.19;5045666;28;20045;-73
2022/01/27 11:55:55;;;;;;;5.85;2.55;;;;;;;10.95;47.65;101978.38;5029052;28;20044;-73
2022/01/27 11:58:25;;;;;;;7.38;3.05;;;;;;;10.93;47.67;101978.31;5051794;28;20051;-73
2022/01/27 12:01:07;;;;;;;10.40;2.97;;;;;;;10.95;48.13;101975.72;5055059;28;20045;-73
2022/01/27 12:03:36;;;;;;;5.60;2.67;;;;;;;10.93;48.18;101975.66;5037339;28;20112;-73
2022/01/27 12:06:21;;;;;;;5.70;2.42;;;;;;;10.95;48.21;101973.09;5040500;28;20065;-73
2022/01/27 12:08:49;;;;;;;7.82;2.88;;;;;;;10.93;48.24;101970.38;5030014;28;20049;-73
2022/01/27 12:11:46;;;;;;;4.40;2.30;;;;;;;10.87;48.07;101974.56;5038894;28;20100;-73
2022/01/27 12:14:18;;;;;;;5.20;2.55;;;;;;;10.87;48.24;101974.56;5037065;28;20515;-72